KPSP/PSP METAR and TAF weather

Enter ICAO airport designator
Station Type Date Time Source
KPSP METAR 2019/12/12 16:53 UTC NOAA

KPSP 121653Z 00000KT 10SM CLR 16/06 A3026 RMK AO2 SLP248 T01560056


Station Type Date Time Source
KPSP Decoded METAR 2019/12/12 16:53 UTC NOAA

PALM SPRINGS REGIONAL AIRPORT , CA, United States (KPSP) 33-50N 116-30W 135M
Dec 12, 2019 - 11:53 AM EST / 2019.12.12 1653 UTC
Wind: Calm:0
Visibility: 10 mile(s):0
Sky conditions: clear
Temperature: 60.1 F (15.6 C)
Dew Point: 42.1 F (5.6 C)
Relative Humidity: 51%
Pressure (altimeter): 30.26 in. Hg (1024 hPa)
ob: KPSP 121653Z 00000KT 10SM CLR 16/06 A3026 RMK AO2 SLP248 T01560056
cycle: 17

Station Type Date Time Source
KPSP TAF 2019/12/12 12:22 UTC NOAA

TAF KPSP 121120Z 1212/1312 VRB04KT P6SM BKN250

Example: see airport list